sensor_id;sensor_type;location;lat;lon;timestamp;P1;durP1;ratioP1;P2;durP2;ratioP2
7128;SDS011;3606;52.930;8.644;2023-03-21T00:01:29;30.10;;;21.00;;
7128;SDS011;3606;52.930;8.644;2023-03-21T00:03:55;28.57;;;20.60;;
7128;SDS011;3606;52.930;8.644;2023-03-21T00:06:20;29.73;;;21.07;;
7128;SDS011;3606;52.930;8.644;2023-03-21T00:08:46;27.97;;;19.57;;
7128;SDS011;3606;52.930;8.644;2023-03-21T00:11:12;30.33;;;19.90;;
7128;SDS011;3606;52.930;8.644;2023-03-21T00:13:38;34.03;;;21.57;;
7128;SDS011;3606;52.930;8.644;2023-03-21T00:16:16;26.83;;;19.37;;
7128;SDS011;3606;52.930;8.644;2023-03-21T00:18:44;26.70;;;18.97;;
7128;SDS011;3606;52.930;8.644;2023-03-21T00:21:12;30.07;;;19.57;;
7128;SDS011;3606;52.930;8.644;2023-03-21T00:23:42;31.33;;;20.97;;
7128;SDS011;3606;52.930;8.644;2023-03-21T00:26:08;26.47;;;19.83;;
7128;SDS011;3606;52.930;8.644;2023-03-21T00:28:35;30.20;;;19.77;;
7128;SDS011;3606;52.930;8.644;2023-03-21T00:31:01;28.80;;;20.27;;
7128;SDS011;3606;52.930;8.644;2023-03-21T00:33:27;28.03;;;19.53;;
7128;SDS011;3606;52.930;8.644;2023-03-21T00:35:54;26.83;;;20.60;;
7128;SDS011;3606;52.930;8.644;2023-03-21T00:38:20;30.07;;;19.60;;
7128;SDS011;3606;52.930;8.644;2023-03-21T00:40:47;32.73;;;19.93;;
7128;SDS011;3606;52.930;8.644;2023-03-21T00:43:13;30.00;;;20.37;;
7128;SDS011;3606;52.930;8.644;2023-03-21T00:45:41;30.17;;;20.47;;
7128;SDS011;3606;52.930;8.644;2023-03-21T00:48:07;33.83;;;21.20;;
7128;SDS011;3606;52.930;8.644;2023-03-21T00:50:33;33.40;;;22.30;;
7128;SDS011;3606;52.930;8.644;2023-03-21T00:53:00;27.93;;;20.40;;
7128;SDS011;3606;52.930;8.644;2023-03-21T00:55:26;31.57;;;21.77;;
7128;SDS011;3606;52.930;8.644;2023-03-21T00:57:51;39.97;;;22.37;;
7128;SDS011;3606;52.930;8.644;2023-03-21T01:00:17;35.60;;;22.37;;
7128;SDS011;3606;52.930;8.644;2023-03-21T01:02:44;34.93;;;22.47;;
7128;SDS011;3606;52.930;8.644;2023-03-21T01:05:20;33.50;;;21.80;;
7128;SDS011;3606;52.930;8.644;2023-03-21T01:08:09;33.20;;;21.27;;
7128;SDS011;3606;52.930;8.644;2023-03-21T01:10:37;33.33;;;23.27;;
7128;SDS011;3606;52.930;8.644;2023-03-21T01:13:04;35.70;;;23.60;;
7128;SDS011;3606;52.930;8.644;2023-03-21T01:15:30;37.07;;;24.00;;
7128;SDS011;3606;52.930;8.644;2023-03-21T01:17:55;39.70;;;25.47;;
7128;SDS011;3606;52.930;8.644;2023-03-21T01:20:21;38.73;;;24.53;;
7128;SDS011;3606;52.930;8.644;2023-03-21T01:22:47;38.33;;;25.57;;
7128;SDS011;3606;52.930;8.644;2023-03-21T01:25:12;45.10;;;24.50;;
7128;SDS011;3606;52.930;8.644;2023-03-21T01:27:38;40.33;;;25.77;;
7128;SDS011;3606;52.930;8.644;2023-03-21T01:30:04;42.87;;;24.70;;
7128;SDS011;3606;52.930;8.644;2023-03-21T01:32:30;36.63;;;25.30;;
7128;SDS011;3606;52.930;8.644;2023-03-21T01:34:55;41.57;;;26.07;;
7128;SDS011;3606;52.930;8.644;2023-03-21T01:37:21;49.17;;;25.13;;
7128;SDS011;3606;52.930;8.644;2023-03-21T01:39:47;44.00;;;25.20;;
7128;SDS011;3606;52.930;8.644;2023-03-21T01:42:12;42.67;;;26.87;;
7128;SDS011;3606;52.930;8.644;2023-03-21T01:44:59;43.30;;;26.47;;
7128;SDS011;3606;52.930;8.644;2023-03-21T01:47:27;44.20;;;26.40;;
7128;SDS011;3606;52.930;8.644;2023-03-21T01:49:54;45.27;;;25.87;;
7128;SDS011;3606;52.930;8.644;2023-03-21T01:52:26;53.90;;;26.37;;
7128;SDS011;3606;52.930;8.644;2023-03-21T01:54:55;53.27;;;27.93;;
7128;SDS011;3606;52.930;8.644;2023-03-21T01:57:23;50.07;;;27.57;;
7128;SDS011;3606;52.930;8.644;2023-03-21T01:59:57;47.23;;;25.83;;
7128;SDS011;3606;52.930;8.644;2023-03-21T02:02:27;42.63;;;26.63;;
7128;SDS011;3606;52.930;8.644;2023-03-21T02:04:55;43.10;;;25.90;;
7128;SDS011;3606;52.930;8.644;2023-03-21T02:07:23;43.97;;;26.73;;
7128;SDS011;3606;52.930;8.644;2023-03-21T02:09:53;40.40;;;25.47;;
7128;SDS011;3606;52.930;8.644;2023-03-21T02:12:21;42.13;;;25.03;;
7128;SDS011;3606;52.930;8.644;2023-03-21T02:14:47;42.67;;;25.93;;
7128;SDS011;3606;52.930;8.644;2023-03-21T02:28:14;45.80;;;24.57;;
7128;SDS011;3606;52.930;8.644;2023-03-21T02:33:40;37.73;;;24.53;;
7128;SDS011;3606;52.930;8.644;2023-03-21T02:36:32;44.80;;;25.10;;
7128;SDS011;3606;52.930;8.644;2023-03-21T02:39:22;39.87;;;25.23;;
7128;SDS011;3606;52.930;8.644;2023-03-21T02:42:02;49.00;;;25.27;;
7128;SDS011;3606;52.930;8.644;2023-03-21T02:47:06;44.83;;;26.43;;
7128;SDS011;3606;52.930;8.644;2023-03-21T02:49:46;51.13;;;26.90;;
7128;SDS011;3606;52.930;8.644;2023-03-21T02:52:23;46.83;;;25.83;;
7128;SDS011;3606;52.930;8.644;2023-03-21T02:54:52;46.03;;;25.97;;
7128;SDS011;3606;52.930;8.644;2023-03-21T02:57:20;45.57;;;26.10;;
7128;SDS011;3606;52.930;8.644;2023-03-21T02:59:47;46.77;;;26.87;;
7128;SDS011;3606;52.930;8.644;2023-03-21T03:02:15;47.03;;;26.50;;
7128;SDS011;3606;52.930;8.644;2023-03-21T03:04:45;48.30;;;25.83;;
7128;SDS011;3606;52.930;8.644;2023-03-21T03:07:16;54.07;;;26.77;;
7128;SDS011;3606;52.930;8.644;2023-03-21T03:10:10;45.97;;;27.63;;
7128;SDS011;3606;52.930;8.644;2023-03-21T03:18:40;52.07;;;26.10;;
7128;SDS011;3606;52.930;8.644;2023-03-21T03:26:49;52.40;;;25.80;;
7128;SDS011;3606;52.930;8.644;2023-03-21T03:29:28;57.07;;;26.13;;
7128;SDS011;3606;52.930;8.644;2023-03-21T03:31:57;43.07;;;26.40;;
7128;SDS011;3606;52.930;8.644;2023-03-21T03:34:28;55.90;;;25.43;;
7128;SDS011;3606;52.930;8.644;2023-03-21T03:36:58;49.43;;;27.37;;
7128;SDS011;3606;52.930;8.644;2023-03-21T03:39:36;51.73;;;26.73;;
7128;SDS011;3606;52.930;8.644;2023-03-21T03:42:20;55.73;;;27.07;;
7128;SDS011;3606;52.930;8.644;2023-03-21T03:44:57;48.10;;;27.23;;
7128;SDS011;3606;52.930;8.644;2023-03-21T03:50:21;54.00;;;27.20;;
7128;SDS011;3606;52.930;8.644;2023-03-21T03:53:17;53.37;;;26.77;;
7128;SDS011;3606;52.930;8.644;2023-03-21T03:55:50;51.70;;;27.77;;
7128;SDS011;3606;52.930;8.644;2023-03-21T03:58:18;55.07;;;27.73;;
7128;SDS011;3606;52.930;8.644;2023-03-21T04:00:45;49.97;;;26.00;;
7128;SDS011;3606;52.930;8.644;2023-03-21T04:03:11;52.57;;;27.30;;
7128;SDS011;3606;52.930;8.644;2023-03-21T04:05:37;50.93;;;25.77;;
7128;SDS011;3606;52.930;8.644;2023-03-21T04:08:02;48.80;;;28.17;;
7128;SDS011;3606;52.930;8.644;2023-03-21T04:10:28;49.40;;;27.00;;
7128;SDS011;3606;52.930;8.644;2023-03-21T04:12:54;47.70;;;27.03;;
7128;SDS011;3606;52.930;8.644;2023-03-21T04:15:19;50.57;;;25.97;;
7128;SDS011;3606;52.930;8.644;2023-03-21T04:17:45;45.10;;;25.73;;
7128;SDS011;3606;52.930;8.644;2023-03-21T04:20:11;55.87;;;26.27;;
7128;SDS011;3606;52.930;8.644;2023-03-21T04:22:38;48.33;;;26.40;;
7128;SDS011;3606;52.930;8.644;2023-03-21T04:25:05;50.77;;;26.07;;
7128;SDS011;3606;52.930;8.644;2023-03-21T04:27:31;47.27;;;25.57;;
7128;SDS011;3606;52.930;8.644;2023-03-21T04:29:57;42.87;;;26.57;;
7128;SDS011;3606;52.930;8.644;2023-03-21T04:32:23;48.43;;;26.93;;
7128;SDS011;3606;52.930;8.644;2023-03-21T04:34:50;45.93;;;25.67;;
7128;SDS011;3606;52.930;8.644;2023-03-21T04:37:18;56.00;;;25.93;;
7128;SDS011;3606;52.930;8.644;2023-03-21T04:39:45;52.70;;;24.97;;
7128;SDS011;3606;52.930;8.644;2023-03-21T04:42:12;50.73;;;26.17;;
7128;SDS011;3606;52.930;8.644;2023-03-21T04:44:38;46.63;;;25.73;;
7128;SDS011;3606;52.930;8.644;2023-03-21T04:47:04;51.17;;;25.83;;
7128;SDS011;3606;52.930;8.644;2023-03-21T04:49:30;46.80;;;25.70;;
7128;SDS011;3606;52.930;8.644;2023-03-21T04:51:56;47.53;;;24.33;;
7128;SDS011;3606;52.930;8.644;2023-03-21T04:54:22;47.60;;;25.47;;
7128;SDS011;3606;52.930;8.644;2023-03-21T04:56:47;49.00;;;24.63;;
7128;SDS011;3606;52.930;8.644;2023-03-21T04:59:13;46.57;;;24.50;;
7128;SDS011;3606;52.930;8.644;2023-03-21T05:01:40;46.23;;;25.73;;
7128;SDS011;3606;52.930;8.644;2023-03-21T05:04:07;53.63;;;26.60;;
7128;SDS011;3606;52.930;8.644;2023-03-21T05:06:33;41.67;;;24.60;;
7128;SDS011;3606;52.930;8.644;2023-03-21T05:09:01;45.23;;;24.60;;
7128;SDS011;3606;52.930;8.644;2023-03-21T05:11:32;51.23;;;24.43;;
7128;SDS011;3606;52.930;8.644;2023-03-21T05:14:01;52.37;;;24.50;;
7128;SDS011;3606;52.930;8.644;2023-03-21T05:16:27;42.47;;;23.60;;
7128;SDS011;3606;52.930;8.644;2023-03-21T05:18:55;47.13;;;24.53;;
7128;SDS011;3606;52.930;8.644;2023-03-21T05:21:27;57.27;;;26.23;;
7128;SDS011;3606;52.930;8.644;2023-03-21T05:23:58;50.03;;;25.20;;
7128;SDS011;3606;52.930;8.644;2023-03-21T05:26:27;50.87;;;25.40;;
7128;SDS011;3606;52.930;8.644;2023-03-21T05:28:53;54.30;;;25.40;;
7128;SDS011;3606;52.930;8.644;2023-03-21T05:31:19;46.80;;;24.00;;
7128;SDS011;3606;52.930;8.644;2023-03-21T05:33:46;55.33;;;24.93;;
7128;SDS011;3606;52.930;8.644;2023-03-21T05:36:12;51.30;;;24.60;;
7128;SDS011;3606;52.930;8.644;2023-03-21T05:38:39;44.53;;;24.13;;
7128;SDS011;3606;52.930;8.644;2023-03-21T05:41:10;47.23;;;24.53;;
7128;SDS011;3606;52.930;8.644;2023-03-21T05:43:37;48.43;;;25.73;;
7128;SDS011;3606;52.930;8.644;2023-03-21T05:46:02;40.00;;;25.37;;
7128;SDS011;3606;52.930;8.644;2023-03-21T05:48:28;54.07;;;25.27;;
7128;SDS011;3606;52.930;8.644;2023-03-21T05:50:54;42.23;;;24.07;;
7128;SDS011;3606;52.930;8.644;2023-03-21T05:53:20;42.73;;;25.07;;
7128;SDS011;3606;52.930;8.644;2023-03-21T05:55:46;50.03;;;25.17;;
7128;SDS011;3606;52.930;8.644;2023-03-21T05:58:11;48.80;;;25.63;;
7128;SDS011;3606;52.930;8.644;2023-03-21T06:00:37;54.00;;;24.93;;
7128;SDS011;3606;52.930;8.644;2023-03-21T06:03:03;44.27;;;23.07;;
7128;SDS011;3606;52.930;8.644;2023-03-21T06:05:28;47.10;;;24.97;;
7128;SDS011;3606;52.930;8.644;2023-03-21T06:07:54;42.40;;;23.57;;
7128;SDS011;3606;52.930;8.644;2023-03-21T06:10:20;50.57;;;24.20;;
7128;SDS011;3606;52.930;8.644;2023-03-21T06:12:46;47.97;;;24.13;;
7128;SDS011;3606;52.930;8.644;2023-03-21T06:15:11;39.23;;;24.43;;
7128;SDS011;3606;52.930;8.644;2023-03-21T06:17:37;46.27;;;24.63;;
7128;SDS011;3606;52.930;8.644;2023-03-21T06:20:04;45.23;;;24.07;;
7128;SDS011;3606;52.930;8.644;2023-03-21T06:22:30;42.07;;;23.77;;
7128;SDS011;3606;52.930;8.644;2023-03-21T06:24:57;56.00;;;24.80;;
7128;SDS011;3606;52.930;8.644;2023-03-21T06:27:22;38.03;;;22.83;;
7128;SDS011;3606;52.930;8.644;2023-03-21T06:29:48;38.17;;;24.57;;
7128;SDS011;3606;52.930;8.644;2023-03-21T06:32:14;44.57;;;23.07;;
7128;SDS011;3606;52.930;8.644;2023-03-21T06:34:40;47.33;;;23.70;;
7128;SDS011;3606;52.930;8.644;2023-03-21T06:37:06;41.23;;;23.60;;
7128;SDS011;3606;52.930;8.644;2023-03-21T06:39:31;34.30;;;23.53;;
7128;SDS011;3606;52.930;8.644;2023-03-21T06:41:57;46.57;;;24.20;;
7128;SDS011;3606;52.930;8.644;2023-03-21T06:44:23;36.67;;;22.83;;
7128;SDS011;3606;52.930;8.644;2023-03-21T06:46:50;47.13;;;23.80;;
7128;SDS011;3606;52.930;8.644;2023-03-21T06:49:16;38.80;;;21.60;;
7128;SDS011;3606;52.930;8.644;2023-03-21T06:51:42;36.70;;;21.50;;
7128;SDS011;3606;52.930;8.644;2023-03-21T06:54:08;32.93;;;21.70;;
7128;SDS011;3606;52.930;8.644;2023-03-21T06:56:34;36.63;;;22.03;;
7128;SDS011;3606;52.930;8.644;2023-03-21T06:58:59;38.97;;;22.97;;
7128;SDS011;3606;52.930;8.644;2023-03-21T07:01:26;35.67;;;21.67;;
7128;SDS011;3606;52.930;8.644;2023-03-21T07:03:55;34.60;;;21.27;;
7128;SDS011;3606;52.930;8.644;2023-03-21T07:06:23;34.03;;;21.20;;
7128;SDS011;3606;52.930;8.644;2023-03-21T07:08:52;33.80;;;20.23;;
7128;SDS011;3606;52.930;8.644;2023-03-21T07:11:19;33.27;;;19.33;;
7128;SDS011;3606;52.930;8.644;2023-03-21T07:13:46;30.20;;;19.40;;
7128;SDS011;3606;52.930;8.644;2023-03-21T07:16:12;36.33;;;20.30;;
7128;SDS011;3606;52.930;8.644;2023-03-21T07:18:39;34.73;;;19.37;;
7128;SDS011;3606;52.930;8.644;2023-03-21T07:21:05;35.57;;;20.70;;
7128;SDS011;3606;52.930;8.644;2023-03-21T07:23:31;33.87;;;20.50;;
7128;SDS011;3606;52.930;8.644;2023-03-21T07:25:57;34.97;;;20.90;;
7128;SDS011;3606;52.930;8.644;2023-03-21T07:28:22;34.00;;;20.83;;
7128;SDS011;3606;52.930;8.644;2023-03-21T07:30:56;31.83;;;18.83;;
7128;SDS011;3606;52.930;8.644;2023-03-21T07:33:23;38.73;;;20.43;;
7128;SDS011;3606;52.930;8.644;2023-03-21T07:35:50;32.60;;;20.87;;
7128;SDS011;3606;52.930;8.644;2023-03-21T07:38:17;35.80;;;20.50;;
7128;SDS011;3606;52.930;8.644;2023-03-21T07:40:44;36.57;;;20.57;;
7128;SDS011;3606;52.930;8.644;2023-03-21T07:43:11;40.47;;;20.17;;
7128;SDS011;3606;52.930;8.644;2023-03-21T07:45:36;43.33;;;19.90;;
7128;SDS011;3606;52.930;8.644;2023-03-21T07:48:02;35.00;;;19.67;;
7128;SDS011;3606;52.930;8.644;2023-03-21T07:50:28;32.17;;;19.83;;
7128;SDS011;3606;52.930;8.644;2023-03-21T07:52:53;34.33;;;19.87;;
7128;SDS011;3606;52.930;8.644;2023-03-21T07:55:19;33.90;;;20.03;;
7128;SDS011;3606;52.930;8.644;2023-03-21T07:57:45;39.23;;;20.27;;
7128;SDS011;3606;52.930;8.644;2023-03-21T08:00:13;33.60;;;20.83;;
7128;SDS011;3606;52.930;8.644;2023-03-21T08:02:46;31.27;;;19.50;;
7128;SDS011;3606;52.930;8.644;2023-03-21T08:05:13;34.43;;;20.73;;
7128;SDS011;3606;52.930;8.644;2023-03-21T08:07:39;32.80;;;19.73;;
7128;SDS011;3606;52.930;8.644;2023-03-21T08:10:04;27.10;;;19.73;;
7128;SDS011;3606;52.930;8.644;2023-03-21T08:12:30;27.93;;;19.73;;
7128;SDS011;3606;52.930;8.644;2023-03-21T08:14:56;29.93;;;20.03;;
7128;SDS011;3606;52.930;8.644;2023-03-21T08:17:21;29.40;;;18.73;;
7128;SDS011;3606;52.930;8.644;2023-03-21T08:19:47;29.33;;;19.63;;
7128;SDS011;3606;52.930;8.644;2023-03-21T08:22:13;30.67;;;19.17;;
7128;SDS011;3606;52.930;8.644;2023-03-21T08:24:38;35.20;;;20.50;;
7128;SDS011;3606;52.930;8.644;2023-03-21T08:27:04;27.17;;;18.50;;
7128;SDS011;3606;52.930;8.644;2023-03-21T08:29:29;29.30;;;19.57;;
7128;SDS011;3606;52.930;8.644;2023-03-21T08:31:55;29.60;;;19.77;;
7128;SDS011;3606;52.930;8.644;2023-03-21T08:34:22;31.53;;;19.27;;
7128;SDS011;3606;52.930;8.644;2023-03-21T08:36:47;30.07;;;18.70;;
7128;SDS011;3606;52.930;8.644;2023-03-21T08:39:13;34.57;;;17.80;;
7128;SDS011;3606;52.930;8.644;2023-03-21T08:41:39;30.90;;;17.97;;
7128;SDS011;3606;52.930;8.644;2023-03-21T08:44:05;28.70;;;18.30;;
7128;SDS011;3606;52.930;8.644;2023-03-21T08:46:31;29.80;;;16.73;;
7128;SDS011;3606;52.930;8.644;2023-03-21T08:48:57;26.57;;;17.30;;
7128;SDS011;3606;52.930;8.644;2023-03-21T08:51:23;24.23;;;16.57;;
7128;SDS011;3606;52.930;8.644;2023-03-21T08:53:48;26.87;;;16.60;;
7128;SDS011;3606;52.930;8.644;2023-03-21T08:56:15;23.63;;;16.83;;
7128;SDS011;3606;52.930;8.644;2023-03-21T08:58:41;30.37;;;16.40;;
7128;SDS011;3606;52.930;8.644;2023-03-21T09:01:06;24.50;;;15.47;;
7128;SDS011;3606;52.930;8.644;2023-03-21T09:03:35;28.00;;;15.33;;
7128;SDS011;3606;52.930;8.644;2023-03-21T09:06:03;24.60;;;14.97;;
7128;SDS011;3606;52.930;8.644;2023-03-21T09:08:29;21.10;;;14.87;;
7128;SDS011;3606;52.930;8.644;2023-03-21T09:10:55;21.70;;;14.03;;
7128;SDS011;3606;52.930;8.644;2023-03-21T09:13:21;26.77;;;15.90;;
7128;SDS011;3606;52.930;8.644;2023-03-21T09:15:47;25.70;;;14.93;;
7128;SDS011;3606;52.930;8.644;2023-03-21T09:18:13;22.90;;;14.33;;
7128;SDS011;3606;52.930;8.644;2023-03-21T09:20:42;23.97;;;14.23;;
7128;SDS011;3606;52.930;8.644;2023-03-21T09:23:10;22.90;;;14.23;;
7128;SDS011;3606;52.930;8.644;2023-03-21T09:25:37;23.50;;;12.97;;
7128;SDS011;3606;52.930;8.644;2023-03-21T09:28:03;20.03;;;13.07;;
7128;SDS011;3606;52.930;8.644;2023-03-21T09:30:30;22.80;;;13.97;;
7128;SDS011;3606;52.930;8.644;2023-03-21T09:32:58;19.33;;;12.27;;
7128;SDS011;3606;52.930;8.644;2023-03-21T09:35:25;16.63;;;11.80;;
7128;SDS011;3606;52.930;8.644;2023-03-21T09:37:52;19.83;;;12.00;;
7128;SDS011;3606;52.930;8.644;2023-03-21T09:40:19;19.37;;;13.40;;
7128;SDS011;3606;52.930;8.644;2023-03-21T09:43:03;18.93;;;13.33;;
7128;SDS011;3606;52.930;8.644;2023-03-21T09:45:48;17.67;;;12.87;;
7128;SDS011;3606;52.930;8.644;2023-03-21T09:48:38;20.57;;;13.13;;
7128;SDS011;3606;52.930;8.644;2023-03-21T09:51:21;20.20;;;14.00;;
7128;SDS011;3606;52.930;8.644;2023-03-21T09:53:50;18.77;;;13.60;;
7128;SDS011;3606;52.930;8.644;2023-03-21T09:56:19;21.73;;;13.90;;
7128;SDS011;3606;52.930;8.644;2023-03-21T09:58:46;20.03;;;13.67;;
7128;SDS011;3606;52.930;8.644;2023-03-21T10:01:29;23.20;;;13.63;;
7128;SDS011;3606;52.930;8.644;2023-03-21T10:04:06;24.40;;;14.17;;
7128;SDS011;3606;52.930;8.644;2023-03-21T10:06:35;16.73;;;12.27;;
7128;SDS011;3606;52.930;8.644;2023-03-21T10:09:05;18.73;;;12.27;;
7128;SDS011;3606;52.930;8.644;2023-03-21T10:14:17;16.83;;;11.07;;
7128;SDS011;3606;52.930;8.644;2023-03-21T10:17:20;16.83;;;11.90;;
7128;SDS011;3606;52.930;8.644;2023-03-21T10:20:14;19.47;;;11.93;;
7128;SDS011;3606;52.930;8.644;2023-03-21T10:22:49;21.47;;;13.13;;
7128;SDS011;3606;52.930;8.644;2023-03-21T10:25:20;24.20;;;14.43;;
7128;SDS011;3606;52.930;8.644;2023-03-21T10:27:50;18.97;;;13.93;;
7128;SDS011;3606;52.930;8.644;2023-03-21T10:30:28;25.73;;;14.40;;
7128;SDS011;3606;52.930;8.644;2023-03-21T10:33:11;21.77;;;12.47;;
7128;SDS011;3606;52.930;8.644;2023-03-21T10:35:40;19.57;;;13.67;;
7128;SDS011;3606;52.930;8.644;2023-03-21T10:38:13;21.33;;;13.97;;
7128;SDS011;3606;52.930;8.644;2023-03-21T10:40:42;20.00;;;12.37;;
7128;SDS011;3606;52.930;8.644;2023-03-21T10:43:15;19.20;;;14.07;;
7128;SDS011;3606;52.930;8.644;2023-03-21T10:45:41;16.87;;;13.10;;
7128;SDS011;3606;52.930;8.644;2023-03-21T10:48:10;19.20;;;13.10;;
7128;SDS011;3606;52.930;8.644;2023-03-21T10:50:35;19.87;;;14.17;;
7128;SDS011;3606;52.930;8.644;2023-03-21T10:53:01;18.73;;;13.17;;
7128;SDS011;3606;52.930;8.644;2023-03-21T10:58:07;19.50;;;14.07;;
7128;SDS011;3606;52.930;8.644;2023-03-21T11:00:38;18.27;;;13.77;;
7128;SDS011;3606;52.930;8.644;2023-03-21T11:03:05;22.27;;;13.73;;
7128;SDS011;3606;52.930;8.644;2023-03-21T11:05:44;17.87;;;13.00;;
7128;SDS011;3606;52.930;8.644;2023-03-21T11:08:12;19.33;;;13.17;;
7128;SDS011;3606;52.930;8.644;2023-03-21T11:10:49;22.40;;;13.77;;
7128;SDS011;3606;52.930;8.644;2023-03-21T11:13:26;18.23;;;13.03;;
7128;SDS011;3606;52.930;8.644;2023-03-21T11:16:06;19.67;;;13.83;;
7128;SDS011;3606;52.930;8.644;2023-03-21T11:18:40;16.90;;;11.90;;
7128;SDS011;3606;52.930;8.644;2023-03-21T11:21:12;17.80;;;13.07;;
7128;SDS011;3606;52.930;8.644;2023-03-21T11:23:46;18.73;;;12.40;;
7128;SDS011;3606;52.930;8.644;2023-03-21T11:26:20;15.93;;;12.27;;
7128;SDS011;3606;52.930;8.644;2023-03-21T11:28:51;19.63;;;13.17;;
7128;SDS011;3606;52.930;8.644;2023-03-21T11:31:17;20.50;;;14.30;;
7128;SDS011;3606;52.930;8.644;2023-03-21T11:33:46;19.87;;;13.80;;
7128;SDS011;3606;52.930;8.644;2023-03-21T11:38:59;20.00;;;13.67;;
7128;SDS011;3606;52.930;8.644;2023-03-21T11:41:38;19.10;;;14.77;;
7128;SDS011;3606;52.930;8.644;2023-03-21T11:44:05;18.27;;;13.80;;
7128;SDS011;3606;52.930;8.644;2023-03-21T11:46:47;21.67;;;14.47;;
7128;SDS011;3606;52.930;8.644;2023-03-21T11:49:12;22.43;;;14.60;;
7128;SDS011;3606;52.930;8.644;2023-03-21T11:56:44;24.17;;;15.50;;
7128;SDS011;3606;52.930;8.644;2023-03-21T12:07:32;21.97;;;15.70;;
7128;SDS011;3606;52.930;8.644;2023-03-21T12:10:29;26.97;;;16.37;;
7128;SDS011;3606;52.930;8.644;2023-03-21T12:19:02;22.33;;;15.93;;
7128;SDS011;3606;52.930;8.644;2023-03-21T12:29:35;23.80;;;16.53;;
7128;SDS011;3606;52.930;8.644;2023-03-21T12:43:26;22.80;;;15.67;;
7128;SDS011;3606;52.930;8.644;2023-03-21T12:45:58;21.07;;;14.70;;
7128;SDS011;3606;52.930;8.644;2023-03-21T12:51:17;20.60;;;15.30;;
7128;SDS011;3606;52.930;8.644;2023-03-21T12:53:51;21.70;;;15.63;;
7128;SDS011;3606;52.930;8.644;2023-03-21T12:56:22;20.20;;;14.77;;
7128;SDS011;3606;52.930;8.644;2023-03-21T12:59:13;23.40;;;15.63;;
7128;SDS011;3606;52.930;8.644;2023-03-21T13:01:58;21.63;;;15.47;;
7128;SDS011;3606;52.930;8.644;2023-03-21T13:06:58;20.47;;;14.47;;
7128;SDS011;3606;52.930;8.644;2023-03-21T13:09:37;17.87;;;13.90;;
7128;SDS011;3606;52.930;8.644;2023-03-21T13:12:12;18.63;;;13.80;;
7128;SDS011;3606;52.930;8.644;2023-03-21T13:14:49;18.47;;;14.03;;
7128;SDS011;3606;52.930;8.644;2023-03-21T13:17:28;17.10;;;12.97;;
7128;SDS011;3606;52.930;8.644;2023-03-21T13:20:04;21.77;;;14.13;;
7128;SDS011;3606;52.930;8.644;2023-03-21T13:23:02;19.00;;;13.83;;
7128;SDS011;3606;52.930;8.644;2023-03-21T13:25:30;19.73;;;12.93;;
7128;SDS011;3606;52.930;8.644;2023-03-21T13:28:02;22.80;;;14.00;;
7128;SDS011;3606;52.930;8.644;2023-03-21T13:30:29;20.73;;;13.97;;
7128;SDS011;3606;52.930;8.644;2023-03-21T13:33:12;19.37;;;13.77;;
7128;SDS011;3606;52.930;8.644;2023-03-21T13:35:41;21.67;;;12.80;;
7128;SDS011;3606;52.930;8.644;2023-03-21T13:38:11;21.33;;;13.87;;
7128;SDS011;3606;52.930;8.644;2023-03-21T13:40:47;15.73;;;12.87;;
7128;SDS011;3606;52.930;8.644;2023-03-21T13:59:56;24.40;;;15.93;;
7128;SDS011;3606;52.930;8.644;2023-03-21T14:04:52;26.63;;;16.77;;
7128;SDS011;3606;52.930;8.644;2023-03-21T14:07:28;25.43;;;17.47;;
7128;SDS011;3606;52.930;8.644;2023-03-21T14:10:08;23.30;;;17.40;;
7128;SDS011;3606;52.930;8.644;2023-03-21T14:12:43;25.37;;;17.57;;
7128;SDS011;3606;52.930;8.644;2023-03-21T14:15:35;24.43;;;18.07;;
7128;SDS011;3606;52.930;8.644;2023-03-21T14:18:05;23.13;;;16.53;;
7128;SDS011;3606;52.930;8.644;2023-03-21T14:20:35;24.70;;;17.90;;
7128;SDS011;3606;52.930;8.644;2023-03-21T14:23:05;25.60;;;18.77;;
7128;SDS011;3606;52.930;8.644;2023-03-21T14:25:33;23.10;;;17.77;;
7128;SDS011;3606;52.930;8.644;2023-03-21T14:28:02;24.30;;;16.93;;
7128;SDS011;3606;52.930;8.644;2023-03-21T14:30:35;20.30;;;15.60;;
7128;SDS011;3606;52.930;8.644;2023-03-21T14:33:15;19.93;;;16.93;;
7128;SDS011;3606;52.930;8.644;2023-03-21T14:35:45;26.37;;;17.67;;
7128;SDS011;3606;52.930;8.644;2023-03-21T14:38:18;23.20;;;16.27;;
7128;SDS011;3606;52.930;8.644;2023-03-21T14:40:47;23.50;;;17.30;;
7128;SDS011;3606;52.930;8.644;2023-03-21T14:43:15;22.50;;;15.30;;
7128;SDS011;3606;52.930;8.644;2023-03-21T14:45:45;23.17;;;16.03;;
7128;SDS011;3606;52.930;8.644;2023-03-21T14:48:13;21.97;;;16.00;;
7128;SDS011;3606;52.930;8.644;2023-03-21T14:50:53;20.67;;;15.23;;
7128;SDS011;3606;52.930;8.644;2023-03-21T14:53:20;20.17;;;14.50;;
7128;SDS011;3606;52.930;8.644;2023-03-21T14:55:57;20.43;;;14.33;;
7128;SDS011;3606;52.930;8.644;2023-03-21T14:58:29;18.70;;;14.50;;
7128;SDS011;3606;52.930;8.644;2023-03-21T15:01:00;21.37;;;13.07;;
7128;SDS011;3606;52.930;8.644;2023-03-21T15:03:28;18.20;;;13.50;;
7128;SDS011;3606;52.930;8.644;2023-03-21T15:05:55;23.83;;;14.60;;
7128;SDS011;3606;52.930;8.644;2023-03-21T15:08:26;19.30;;;12.80;;
7128;SDS011;3606;52.930;8.644;2023-03-21T15:10:56;18.20;;;13.47;;
7128;SDS011;3606;52.930;8.644;2023-03-21T15:13:24;22.63;;;13.93;;
7128;SDS011;3606;52.930;8.644;2023-03-21T15:15:57;19.00;;;13.50;;
7128;SDS011;3606;52.930;8.644;2023-03-21T15:18:24;16.23;;;12.90;;
7128;SDS011;3606;52.930;8.644;2023-03-21T15:20:53;15.90;;;12.07;;
7128;SDS011;3606;52.930;8.644;2023-03-21T15:23:26;18.50;;;12.37;;
7128;SDS011;3606;52.930;8.644;2023-03-21T15:26:15;17.40;;;12.37;;
7128;SDS011;3606;52.930;8.644;2023-03-21T15:28:44;16.97;;;12.50;;
7128;SDS011;3606;52.930;8.644;2023-03-21T15:31:17;15.90;;;12.57;;
7128;SDS011;3606;52.930;8.644;2023-03-21T15:33:46;15.20;;;11.73;;
7128;SDS011;3606;52.930;8.644;2023-03-21T15:36:17;18.27;;;12.27;;
7128;SDS011;3606;52.930;8.644;2023-03-21T15:38:49;17.47;;;12.07;;
7128;SDS011;3606;52.930;8.644;2023-03-21T15:43:44;17.57;;;12.03;;
7128;SDS011;3606;52.930;8.644;2023-03-21T15:46:30;14.87;;;11.27;;
7128;SDS011;3606;52.930;8.644;2023-03-21T15:52:00;14.90;;;11.33;;
7128;SDS011;3606;52.930;8.644;2023-03-21T15:54:33;14.07;;;11.80;;
7128;SDS011;3606;52.930;8.644;2023-03-21T15:57:14;14.73;;;11.30;;
7128;SDS011;3606;52.930;8.644;2023-03-21T15:59:43;19.10;;;11.37;;
7128;SDS011;3606;52.930;8.644;2023-03-21T16:02:18;16.07;;;12.30;;
7128;SDS011;3606;52.930;8.644;2023-03-21T16:04:53;16.70;;;12.20;;
7128;SDS011;3606;52.930;8.644;2023-03-21T16:07:20;17.97;;;12.17;;
7128;SDS011;3606;52.930;8.644;2023-03-21T16:09:48;21.93;;;12.53;;
7128;SDS011;3606;52.930;8.644;2023-03-21T16:12:14;15.73;;;11.73;;
7128;SDS011;3606;52.930;8.644;2023-03-21T16:14:40;19.07;;;12.10;;
7128;SDS011;3606;52.930;8.644;2023-03-21T16:20:01;18.50;;;11.90;;
7128;SDS011;3606;52.930;8.644;2023-03-21T16:22:28;15.50;;;12.00;;
7128;SDS011;3606;52.930;8.644;2023-03-21T16:24:58;19.17;;;11.43;;
7128;SDS011;3606;52.930;8.644;2023-03-21T16:27:24;17.10;;;12.13;;
7128;SDS011;3606;52.930;8.644;2023-03-21T16:29:50;14.43;;;12.47;;
7128;SDS011;3606;52.930;8.644;2023-03-21T16:32:16;18.30;;;12.07;;
7128;SDS011;3606;52.930;8.644;2023-03-21T16:34:42;21.23;;;12.37;;
7128;SDS011;3606;52.930;8.644;2023-03-21T16:37:10;16.10;;;11.53;;
7128;SDS011;3606;52.930;8.644;2023-03-21T16:39:36;14.90;;;11.63;;
7128;SDS011;3606;52.930;8.644;2023-03-21T16:42:01;20.37;;;12.63;;
7128;SDS011;3606;52.930;8.644;2023-03-21T16:44:27;19.60;;;12.33;;
7128;SDS011;3606;52.930;8.644;2023-03-21T16:46:53;18.60;;;13.00;;
7128;SDS011;3606;52.930;8.644;2023-03-21T16:49:22;20.43;;;13.13;;
7128;SDS011;3606;52.930;8.644;2023-03-21T16:51:50;19.13;;;12.10;;
7128;SDS011;3606;52.930;8.644;2023-03-21T16:54:16;17.53;;;12.40;;